Time;durP1;ratioP1;P1;durP2;ratioP2;P2;SDS_P1;SDS_P2;PMS_P1;PMS_P2;Temp;Humidity;BMP_temperature;BMP_pressure;BME280_temperature;BME280_humidity;BME280_pressure;Samples;Min_cycle;Max_cycle;Signal;HPM_P1;HPM_P2
2021/12/16 00:02:53;;;;;;;;;;;;;;;;;;;;;
2021/12/16 00:08:51;;;;;;;223.13;46.10;;;;;;;8.47;100.00;103419.69;5049234;28;20071;-89
2021/12/16 00:32:59;;;;;;;225.90;45.28;;;;;;;8.21;100.00;103410.34;5006231;28;20034;-89
2021/12/16 00:36:02;;;;;;;225.32;47.97;;;;;;;8.24;100.00;103418.19;5020857;28;20033;-89
2021/12/16 00:38:42;;;;;;;223.23;46.35;;;;;;;8.26;100.00;103421.66;5015390;28;20055;-89
2021/12/16 00:41:33;;;;;;;224.45;45.42;;;;;;;8.20;100.00;103414.63;5030865;28;20040;-89
2021/12/16 00:56:13;;;;;;;233.65;47.42;;;;;;;8.30;100.00;103415.78;5050272;28;20064;-89
2021/12/16 00:59:05;;;;;;;223.10;47.30;;;;;;;8.34;100.00;103420.22;5037913;28;20036;-90
2021/12/16 01:02:02;;;;;;;234.90;48.38;;;;;;;8.31;100.00;103414.97;5027401;28;20022;-89
2021/12/16 01:50:06;;;;;;;223.75;44.83;;;;;;;8.33;100.00;103439.13;5052514;28;20383;-89
2021/12/16 01:53:20;;;;;;;226.82;48.40;;;;;;;8.33;100.00;103436.53;5042523;28;20085;-89
2021/12/16 01:59:05;;;;;;;217.52;44.55;;;;;;;8.31;100.00;103448.56;5038029;28;20108;-89
2021/12/16 02:01:42;;;;;;;223.15;46.35;;;;;;;8.45;100.00;103467.03;5041285;28;20040;-90
2021/12/16 02:04:40;;;;;;;221.13;45.78;;;;;;;8.40;100.00;103459.13;5050166;28;20058;-90
2021/12/16 02:10:40;;;;;;;217.57;48.17;;;;;;;8.36;100.00;103466.78;4984590;28;20081;-90
2021/12/16 02:28:25;;;;;;;205.15;44.85;;;;;;;8.33;100.00;103457.22;5038762;28;20044;-90
2021/12/16 02:31:26;;;;;;;199.27;44.67;;;;;;;8.40;100.00;103474.63;5021139;28;20039;-89
2021/12/16 02:34:28;;;;;;;215.82;46.47;;;;;;;8.38;100.00;103476.34;5008344;28;20128;-90
2021/12/16 02:37:01;;;;;;;211.48;45.65;;;;;;;8.38;100.00;103472.88;5038235;28;20025;-89
2021/12/16 02:39:52;;;;;;;214.25;46.10;;;;;;;8.33;100.00;103472.72;5033546;28;20322;-90
2021/12/16 02:42:40;;;;;;;215.95;47.63;;;;;;;8.43;100.00;103492.84;5016812;28;20509;-90
2021/12/16 02:51:22;;;;;;;208.07;46.42;;;;;;;8.41;100.00;103480.69;5018784;28;20041;-90
2021/12/16 02:54:02;;;;;;;218.25;48.00;;;;;;;8.38;100.00;103478.03;5012166;28;20045;-89
2021/12/16 02:56:29;;;;;;;226.77;48.92;;;;;;;8.31;100.00;103472.69;5017451;28;20098;-89
2021/12/16 02:59:01;;;;;;;213.95;46.88;;;;;;;8.44;100.00;103494.59;5012782;28;20118;-90
2021/12/16 03:01:55;;;;;;;216.80;49.38;;;;;;;8.33;100.00;103463.25;5028959;28;20040;-89
2021/12/16 03:04:30;;;;;;;215.23;46.30;;;;;;;8.38;100.00;103478.91;5029527;28;20414;-90
2021/12/16 03:07:04;;;;;;;218.32;47.50;;;;;;;8.39;100.00;103477.22;5027577;28;20021;-89
2021/12/16 03:23:15;;;;;;;209.25;47.08;;;;;;;8.34;100.00;103484.81;5040480;28;20524;-90
2021/12/16 03:37:39;;;;;;;203.57;45.55;;;;;;;8.19;100.00;103466.25;5033053;28;20143;-89
2021/12/16 03:40:20;;;;;;;204.07;45.63;;;;;;;8.31;100.00;103490.78;5024394;28;20075;-90
2021/12/16 03:43:31;;;;;;;196.50;45.63;;;;;;;8.23;100.00;103471.56;5034170;28;20036;-89
2021/12/16 03:46:58;;;;;;;211.48;46.60;;;;;;;8.17;100.00;103470.53;5021384;28;20072;-90
2021/12/16 03:50:03;;;;;;;211.18;46.58;;;;;;;8.15;100.00;103485.09;4933343;28;20082;-94
2021/12/16 03:52:55;;;;;;;199.88;45.53;;;;;;;8.10;100.00;103487.56;4974020;28;20552;-94
2021/12/16 03:58:27;;;;;;;217.38;48.45;;;;;;;8.07;100.00;103491.75;5047996;28;20037;-94
2021/12/16 04:01:02;;;;;;;210.30;46.60;;;;;;;8.04;100.00;103489.97;5049823;28;20028;-94
2021/12/16 04:03:52;;;;;;;229.57;47.85;;;;;;;8.09;100.00;103509.06;5031371;28;20040;-94
2021/12/16 04:06:23;;;;;;;205.75;46.75;;;;;;;8.03;100.00;103495.97;5037583;28;20032;-94
2021/12/16 04:08:58;;;;;;;201.93;45.72;;;;;;;8.09;100.00;103496.13;5048642;28;20525;-89
2021/12/16 04:12:02;;;;;;;211.63;47.20;;;;;;;8.11;100.00;103514.28;5043028;28;20036;-89
2021/12/16 04:14:31;;;;;;;196.65;46.70;;;;;;;8.01;100.00;103504.47;5051488;28;20036;-89
2021/12/16 04:17:03;;;;;;;202.05;45.70;;;;;;;7.99;100.00;103512.19;5045318;28;20029;-89
2021/12/16 04:19:42;;;;;;;201.93;46.42;;;;;;;7.83;100.00;103497.06;5040668;28;20036;-89
2021/12/16 04:22:54;;;;;;;201.75;45.28;;;;;;;7.82;100.00;103505.66;5019239;28;20045;-89
2021/12/16 04:25:37;;;;;;;217.32;46.63;;;;;;;7.78;100.00;103509.81;5000652;28;20060;-89
2021/12/16 04:28:12;;;;;;;189.20;45.70;;;;;;;7.59;100.00;103480.81;5035578;28;20115;-89
2021/12/16 04:30:54;;;;;;;217.35;47.08;;;;;;;7.62;100.00;103499.00;5040808;28;20032;-89
2021/12/16 04:33:30;;;;;;;;;;;;;;;;;;;;;
2021/12/16 04:36:02;;;;;;;202.77;45.33;;;;;;;7.37;100.00;103494.78;5049424;28;20016;-89
2021/12/16 04:38:39;;;;;;;195.60;44.05;;;;;;;7.27;100.00;103500.44;5048217;28;20037;-89
2021/12/16 04:41:30;;;;;;;203.77;46.72;;;;;;;7.15;100.00;103495.78;5033977;28;20112;-89
2021/12/16 04:44:16;;;;;;;185.80;43.35;;;;;;;7.05;100.00;103496.28;5036238;28;20033;-89
2021/12/16 04:47:21;;;;;;;190.77;42.70;;;;;;;6.97;100.00;103489.97;5048341;28;20036;-90
2021/12/16 04:49:58;;;;;;;196.02;44.22;;;;;;;6.84;100.00;103475.81;5047748;28;20033;-89
2021/12/16 04:56:00;;;;;;;181.27;42.92;;;;;;;6.86;100.00;103511.97;5048544;28;20040;-89
2021/12/16 04:59:07;;;;;;;190.57;45.28;;;;;;;6.67;100.00;103495.00;5031513;28;20033;-89
2021/12/16 05:01:54;;;;;;;;;;;;;;;;;;;;;
2021/12/16 05:05:06;;;;;;;202.90;46.13;;;;;;;6.64;100.00;103518.94;5049833;28;20033;-89
2021/12/16 05:07:47;;;;;;;;;;;;;;;;;;;;;
2021/12/16 05:10:29;;;;;;;207.85;45.58;;;;;;;6.54;100.00;103513.41;5050150;28;20381;-89
2021/12/16 05:13:04;;;;;;;206.70;44.92;;;;;;;6.40;100.00;103483.72;5037941;28;20203;-89
2021/12/16 05:15:49;;;;;;;180.73;40.72;;;;;;;6.35;100.00;103502.44;5042420;28;20037;-89
2021/12/16 05:27:02;;;;;;;191.85;43.22;;;;;;;6.22;100.00;103530.25;5060217;28;20090;-90
2021/12/16 05:30:39;;;;;;;159.55;39.10;;;;;;;6.02;100.00;103513.19;5058825;28;20155;-89
2021/12/16 05:33:18;;;;;;;188.40;42.88;;;;;;;6.11;100.00;103535.03;5045055;28;20036;-89
2021/12/16 05:35:55;;;;;;;195.10;42.97;;;;;;;6.04;100.00;103522.72;5040618;28;20127;-89
2021/12/16 05:38:39;;;;;;;157.32;40.45;;;;;;;5.99;100.00;103525.97;5035951;28;20041;-90
2021/12/16 05:41:24;;;;;;;155.65;38.70;;;;;;;5.94;100.00;103539.50;5046832;28;20044;-88
2021/12/16 05:44:02;;;;;;;148.57;38.05;;;;;;;5.85;100.00;103538.25;5036932;28;20031;-89
2021/12/16 05:46:33;;;;;;;149.13;39.25;;;;;;;5.72;100.00;103530.88;5040374;28;20029;-90
2021/12/16 05:49:06;;;;;;;150.43;37.03;;;;;;;5.68;100.00;103529.00;5033382;28;20106;-89
2021/12/16 05:51:35;;;;;;;157.43;39.13;;;;;;;5.68;100.00;103541.84;5066894;28;20025;-89
2021/12/16 05:54:06;;;;;;;152.40;38.30;;;;;;;5.57;100.00;103541.44;5049561;28;20382;-89
2021/12/16 05:56:46;;;;;;;167.57;39.95;;;;;;;5.52;100.00;103540.38;5055562;28;20033;-89
2021/12/16 05:59:17;;;;;;;137.45;36.15;;;;;;;5.51;100.00;103546.34;5032120;28;20726;-89
2021/12/16 06:01:55;;;;;;;168.13;39.42;;;;;;;5.44;100.00;103552.06;5031094;28;20033;-89
2021/12/16 06:04:27;;;;;;;156.75;38.22;;;;;;;5.40;100.00;103561.31;5035537;28;20029;-89
2021/12/16 06:07:01;;;;;;;135.15;35.45;;;;;;;5.31;100.00;103555.81;5040278;28;20059;-89
2021/12/16 06:09:44;;;;;;;152.07;37.50;;;;;;;5.28;100.00;103558.25;5050710;28;20154;-90
2021/12/16 06:12:19;;;;;;;143.98;36.45;;;;;;;5.21;100.00;103555.34;5036908;28;20115;-89
2021/12/16 06:26:59;;;;;;;138.88;35.70;;;;;;;5.13;100.00;103589.34;5049110;28;20151;-90
2021/12/16 06:29:31;;;;;;;139.30;35.72;;;;;;;5.02;100.00;103574.28;5050572;28;20031;-89
2021/12/16 06:32:02;;;;;;;129.82;34.17;;;;;;;5.06;100.00;103589.88;5051188;28;20386;-89
2021/12/16 06:35:02;;;;;;;120.50;33.95;;;;;;;4.94;100.00;103583.34;5036656;28;20025;-90
2021/12/16 06:37:38;;;;;;;122.45;32.80;;;;;;;4.84;100.00;103574.38;5040706;28;20035;-89
2021/12/16 06:40:16;;;;;;;120.07;34.72;;;;;;;4.90;100.00;103590.06;5054779;28;20025;-90
2021/12/16 06:42:43;;;;;;;114.90;31.27;;;;;;;4.85;100.00;103582.94;5034844;28;20049;-89
2021/12/16 06:45:21;;;;;;;123.82;33.40;;;;;;;4.81;100.00;103586.19;5057638;28;20025;-89
2021/12/16 06:48:06;;;;;;;105.82;32.58;;;;;;;4.69;100.00;103568.56;5035595;28;20116;-90
2021/12/16 06:51:05;;;;;;;116.13;32.75;;;;;;;4.65;100.00;103569.22;5058108;28;20060;-89
2021/12/16 06:53:52;;;;;;;101.40;30.45;;;;;;;4.75;100.00;103592.81;5022472;28;20033;-90
2021/12/16 06:56:34;;;;;;;107.35;31.35;;;;;;;4.63;100.00;103596.53;5039868;28;20036;-91
2021/12/16 06:59:28;;;;;;;99.85;30.58;;;;;;;4.55;100.00;103583.34;5042058;28;20037;-89
2021/12/16 07:02:19;;;;;;;100.83;30.77;;;;;;;4.55;100.00;103590.16;5037520;28;20044;-89
2021/12/16 07:05:07;;;;;;;;;;;;;;;;;;;;;
2021/12/16 07:07:45;;;;;;;93.80;29.55;;;;;;;4.44;100.00;103602.50;5046355;28;20029;-90
2021/12/16 07:10:14;;;;;;;88.93;29.05;;;;;;;4.36;100.00;103598.75;5052426;28;20028;-89
2021/12/16 07:13:07;;;;;;;89.72;29.70;;;;;;;4.35;100.00;103613.25;5033792;28;20382;-89
2021/12/16 07:15:46;;;;;;;81.95;27.02;;;;;;;4.37;100.00;103626.16;5030348;28;20044;-89
2021/12/16 07:18:21;;;;;;;89.57;29.00;;;;;;;4.18;100.00;103606.44;5030488;28;20044;-91
2021/12/16 07:21:02;;;;;;;83.28;27.27;;;;;;;4.22;100.00;103622.88;5052088;28;20036;-90
2021/12/16 07:23:32;;;;;;;78.75;26.80;;;;;;;4.24;100.00;103636.66;5042195;28;20054;-90
2021/12/16 07:26:02;;;;;;;84.43;26.27;;;;;;;4.11;100.00;103637.75;5019699;28;20514;-90
2021/12/16 07:28:50;;;;;;;75.30;26.67;;;;;;;4.15;100.00;103649.06;5035196;28;20116;-89
2021/12/16 07:31:38;;;;;;;;;;;;;;;;;;;;;
2021/12/16 07:34:11;;;;;;;77.45;26.20;;;;;;;4.02;100.00;103651.88;5043504;28;20044;-90
2021/12/16 07:36:40;;;;;;;73.30;25.10;;;;;;;4.01;100.00;103655.22;5031542;28;20441;-89
2021/12/16 07:39:09;;;;;;;73.68;25.77;;;;;;;4.03;100.00;103669.00;5028487;28;20024;-89
2021/12/16 07:41:35;;;;;;;77.57;26.52;;;;;;;4.00;100.00;103674.88;5018128;28;20047;-88
2021/12/16 07:44:10;;;;;;;78.15;24.90;;;;;;;3.84;100.00;103662.97;5014195;28;20031;-89
2021/12/16 07:47:02;;;;;;;70.30;24.27;;;;;;;3.84;100.00;103673.25;5037134;28;20025;-88
2021/12/16 07:49:34;;;;;;;70.53;24.13;;;;;;;3.81;100.00;103685.94;5023420;28;20041;-88
2021/12/16 07:52:03;;;;;;;87.90;27.08;;;;;;;3.84;100.00;103695.44;5016966;28;20116;-89
2021/12/16 07:54:31;;;;;;;82.47;26.35;;;;;;;3.88;100.00;103697.38;5006389;28;20035;-88
2021/12/16 07:57:06;;;;;;;78.13;25.90;;;;;;;3.79;100.00;103684.97;5036339;28;20037;-89
2021/12/16 07:59:32;;;;;;;;;;;;;;;3.88;100.00;103711.09;5016991;28;20055;-89
2021/12/16 08:02:03;;;;;;;76.97;24.77;;;;;;;3.74;100.00;103695.81;5030450;28;20418;-90
2021/12/16 08:04:38;;;;;;;86.00;26.50;;;;;;;3.80;100.00;103698.69;5036043;28;20028;-89
2021/12/16 08:07:08;;;;;;;76.30;26.20;;;;;;;3.88;100.00;103711.09;5032793;28;20022;-89
2021/12/16 08:09:37;;;;;;;78.43;26.35;;;;;;;3.76;100.00;103700.19;5020985;28;20086;-88
2021/12/16 08:12:05;;;;;;;91.25;26.83;;;;;;;3.81;100.00;103703.88;5036892;28;20021;-89
2021/12/16 08:14:39;;;;;;;81.00;25.35;;;;;;;3.83;100.00;103711.63;5042525;28;20470;-91
2021/12/16 08:17:08;;;;;;;81.50;26.35;;;;;;;3.86;100.00;103711.81;5033560;28;20108;-89
2021/12/16 08:19:45;;;;;;;85.28;27.35;;;;;;;3.90;100.00;103713.72;5022099;28;20082;-89
2021/12/16 08:22:14;;;;;;;102.30;28.65;;;;;;;3.92;100.00;103712.09;5028117;28;20493;-88
2021/12/16 08:24:40;;;;;;;105.57;27.52;;;;;;;4.01;100.00;103729.66;5051009;28;20024;-89
2021/12/16 08:27:06;;;;;;;101.00;27.85;;;;;;;4.04;100.00;103728.09;5049556;28;20025;-89
2021/12/16 08:29:32;;;;;;;90.10;28.42;;;;;;;4.16;100.00;103745.81;5031947;28;20103;-89
2021/12/16 08:31:57;;;;;;;87.68;28.80;;;;;;;4.16;100.00;103728.69;5043234;28;20041;-89
2021/12/16 08:34:26;;;;;;;91.03;28.77;;;;;;;4.15;100.00;103720.94;5047822;28;20478;-88
2021/12/16 08:36:54;;;;;;;97.00;28.27;;;;;;;4.30;100.00;103755.94;5035815;28;20029;-89
2021/12/16 08:39:22;;;;;;;134.88;30.23;;;;;;;4.32;100.00;103754.31;5048290;28;20029;-89
2021/12/16 08:41:53;;;;;;;79.68;27.40;;;;;;;4.40;100.00;103751.25;5046948;28;20037;-89
2021/12/16 08:44:19;;;;;;;92.65;27.48;;;;;;;4.41;100.00;103742.75;5045368;28;20474;-89
2021/12/16 08:46:49;;;;;;;111.78;29.20;;;;;;;4.48;100.00;103773.94;5037715;28;20025;-89
2021/12/16 08:49:15;;;;;;;80.32;28.40;;;;;;;4.44;100.00;103740.31;5045500;28;20028;-89
2021/12/16 08:51:48;;;;;;;83.68;28.42;;;;;;;4.53;100.00;103746.78;5049219;28;20389;-89
2021/12/16 08:54:16;;;;;;;88.07;29.45;;;;;;;4.67;100.00;103750.88;5047085;28;20520;-89
2021/12/16 08:56:42;;;;;;;92.28;30.27;;;;;;;4.70;100.00;103753.59;5033263;28;20151;-90
2021/12/16 08:59:08;;;;;;;106.95;30.42;;;;;;;4.82;100.00;103765.25;5047903;28;20028;-88
2021/12/16 09:01:40;;;;;;;81.53;28.83;;;;;;;4.80;100.00;103757.47;5042578;28;20020;-89
2021/12/16 09:04:06;;;;;;;109.85;31.77;;;;;;;4.82;100.00;103760.13;5046140;28;20021;-90
2021/12/16 09:06:34;;;;;;;94.65;30.00;;;;;;;4.97;100.00;103777.13;5031299;28;20021;-89
2021/12/16 09:09:02;;;;;;;97.20;30.17;;;;;;;4.96;100.00;103759.06;5038518;28;20033;-89
2021/12/16 09:11:30;;;;;;;87.13;29.73;;;;;;;5.02;100.00;103757.66;5048481;28;20446;-89
2021/12/16 09:13:58;;;;;;;107.22;31.90;;;;;;;5.13;100.00;103779.59;5049017;28;20150;-90
2021/12/16 09:16:30;;;;;;;92.00;32.63;;;;;;;5.21;100.00;103794.47;5039279;28;20040;-90
2021/12/16 09:18:56;;;;;;;101.30;33.38;;;;;;;5.18;100.00;103771.22;5038473;28;20187;-90
2021/12/16 09:21:25;;;;;;;101.40;31.90;;;;;;;5.29;100.00;103772.56;5048316;28;20122;-89
2021/12/16 09:23:55;;;;;;;108.85;34.00;;;;;;;5.43;100.00;103790.38;5047404;28;20040;-90
2021/12/16 09:26:23;;;;;;;100.32;33.20;;;;;;;5.48;100.00;103793.16;5048799;28;20089;-89
2021/12/16 09:28:53;;;;;;;107.72;34.70;;;;;;;5.45;100.00;103781.06;5039703;28;20033;-90
2021/12/16 09:31:22;;;;;;;122.03;36.05;;;;;;;5.40;100.00;103763.63;5030743;28;20029;-89
2021/12/16 09:33:51;;;;;;;112.00;37.00;;;;;;;5.49;100.00;103772.66;5048182;28;20025;-89
2021/12/16 09:36:20;;;;;;;106.90;35.47;;;;;;;5.53;100.00;103771.97;5038432;28;20028;-89
2021/12/16 09:38:55;;;;;;;129.77;36.45;;;;;;;5.58;100.00;103782.47;5048169;28;20032;-89
2021/12/16 09:41:27;;;;;;;139.23;39.17;;;;;;;5.74;100.00;103782.31;5033936;28;20497;-89
2021/12/16 09:43:57;;;;;;;130.18;37.53;;;;;;;5.92;100.00;103774.53;5040551;28;20021;-90
2021/12/16 09:46:26;;;;;;;120.97;38.22;;;;;;;5.90;100.00;103761.59;5052335;28;20029;-89
2021/12/16 09:48:57;;;;;;;118.47;37.38;;;;;;;6.12;100.00;103790.84;5052743;28;20490;-89
2021/12/16 09:51:26;;;;;;;117.45;38.35;;;;;;;6.03;100.00;103773.28;5046653;28;20024;-89
2021/12/16 09:53:55;;;;;;;133.02;39.20;;;;;;;6.09;100.00;103765.81;5051568;28;20060;-89
2021/12/16 09:56:26;;;;;;;131.05;40.15;;;;;;;6.10;100.00;103767.59;5035599;28;20032;-88
2021/12/16 09:58:59;;;;;;;130.68;39.67;;;;;;;6.25;100.00;103786.25;5051180;28;20028;-89
2021/12/16 10:01:26;;;;;;;117.05;39.05;;;;;;;6.28;100.00;103780.31;5035216;28;20107;-90
2021/12/16 10:04:00;;;;;;;124.80;39.08;;;;;;;6.39;100.00;103794.56;5052060;28;20470;-90
2021/12/16 10:06:26;;;;;;;;;;;;;;;6.47;100.00;103781.97;5049678;28;20029;-90
2021/12/16 10:08:54;;;;;;;136.75;40.05;;;;;;;6.49;100.00;103783.78;5052193;28;20281;-89
2021/12/16 10:11:20;;;;;;;132.00;40.63;;;;;;;6.42;100.00;103773.16;5051751;28;20029;-90
2021/12/16 10:14:00;;;;;;;137.98;41.58;;;;;;;6.34;100.00;103771.19;5037838;28;20493;-89
2021/12/16 10:17:31;;;;;;;150.70;44.00;;;;;;;6.39;100.00;103775.63;5031674;28;20102;-90
2021/12/16 10:19:23;;;;;;;146.02;43.35;;;;;;;6.26;100.00;103771.69;5042016;28;20178;-89
2021/12/16 10:21:53;;;;;;;140.73;41.75;;;;;;;6.24;100.00;103771.59;5035004;28;20410;-91
2021/12/16 10:24:31;;;;;;;169.07;46.92;;;;;;;6.23;100.00;103759.53;5041032;28;20033;-90
2021/12/16 10:27:18;;;;;;;178.80;48.10;;;;;;;6.38;100.00;103779.91;5037052;28;20045;-89
2021/12/16 10:30:02;;;;;;;169.43;46.03;;;;;;;6.39;100.00;103791.97;5048621;28;20029;-89
2021/12/16 10:32:49;;;;;;;239.30;56.67;;;;;;;6.38;100.00;103758.41;5050045;28;20443;-89
2021/12/16 10:35:28;;;;;;;226.80;56.47;;;;;;;6.59;100.00;103782.47;5036748;28;20044;-90
2021/12/16 10:38:07;;;;;;;242.55;58.03;;;;;;;6.66;100.00;103781.88;5051353;28;20100;-90
2021/12/16 10:40:40;;;;;;;287.63;60.55;;;;;;;6.82;100.00;103784.25;5051019;28;20037;-90
2021/12/16 10:43:15;;;;;;;271.50;60.70;;;;;;;6.79;100.00;103755.78;5050329;28;20021;-90
2021/12/16 10:45:44;;;;;;;267.88;59.97;;;;;;;6.95;100.00;103778.75;5030786;28;20021;-90
2021/12/16 10:48:24;;;;;;;260.67;60.03;;;;;;;6.88;100.00;103778.47;5051911;28;20039;-90
2021/12/16 10:50:57;;;;;;;255.90;57.90;;;;;;;7.01;100.00;103789.31;5034821;28;20029;-89
2021/12/16 10:53:46;;;;;;;265.40;59.17;;;;;;;7.14;100.00;103794.09;5050367;28;20029;-89
2021/12/16 10:56:15;;;;;;;246.27;56.30;;;;;;;7.08;100.00;103777.50;5042560;28;20025;-90
2021/12/16 10:58:56;;;;;;;266.08;59.13;;;;;;;7.14;100.00;103788.06;5043380;28;20029;-90
2021/12/16 11:01:42;;;;;;;236.23;53.80;;;;;;;7.34;100.00;103802.59;5050985;28;20108;-89
2021/12/16 11:04:25;;;;;;;251.80;57.72;;;;;;;7.39;100.00;103797.59;5033186;28;20013;-90
2021/12/16 11:07:14;;;;;;;265.98;60.65;;;;;;;7.50;100.00;103804.03;5033173;28;20029;-90
2021/12/16 11:09:45;;;;;;;259.05;57.85;;;;;;;7.58;100.00;103792.25;5033496;28;20031;-91
2021/12/16 11:12:13;;;;;;;254.48;59.00;;;;;;;7.65;100.00;103790.78;5049163;28;20045;-90
2021/12/16 11:14:46;;;;;;;261.48;57.90;;;;;;;7.85;100.00;103818.19;5050745;28;20398;-90
2021/12/16 11:17:17;;;;;;;259.63;58.45;;;;;;;7.93;100.00;103796.09;5032516;28;20024;-90
2021/12/16 11:19:59;;;;;;;290.40;63.40;;;;;;;8.18;100.00;103808.16;5039637;28;20037;-90
2021/12/16 11:22:37;;;;;;;260.77;60.85;;;;;;;8.34;100.00;103813.03;5045429;28;20044;-90
2021/12/16 11:25:37;;;;;;;242.95;59.60;;;;;;;8.46;100.00;103791.88;5071073;28;20016;-89
2021/12/16 11:28:39;;;;;;;222.88;51.72;;;;;;;8.66;100.00;103814.97;5032688;28;20505;-89
2021/12/16 11:31:16;;;;;;;221.65;50.85;;;;;;;8.78;100.00;103808.41;5039939;28;20033;-90
2021/12/16 11:33:49;;;;;;;212.88;51.47;;;;;;;8.81;100.00;103799.03;5045141;28;20025;-90
2021/12/16 11:36:43;;;;;;;199.30;49.40;;;;;;;8.86;100.00;103787.16;5057670;28;20029;-90
2021/12/16 11:39:44;;;;;;;188.27;51.03;;;;;;;9.00;100.00;103782.38;5017976;28;20052;-90
2021/12/16 11:42:13;;;;;;;195.85;49.95;;;;;;;9.17;100.00;103799.28;5031196;28;20032;-90
2021/12/16 11:44:42;;;;;;;192.43;49.33;;;;;;;9.16;100.00;103791.47;5032997;28;20021;-90
2021/12/16 11:47:09;;;;;;;174.35;46.50;;;;;;;9.24;100.00;103803.78;5053687;28;20534;-91
2021/12/16 11:49:41;;;;;;;170.07;45.83;;;;;;;9.07;100.00;103785.19;5038870;28;20519;-91
2021/12/16 11:52:13;;;;;;;162.68;44.45;;;;;;;9.07;100.00;103784.31;5067101;28;20021;-90
2021/12/16 11:54:41;;;;;;;157.15;44.08;;;;;;;9.06;100.00;103790.31;5053011;28;20040;-90
2021/12/16 11:57:24;;;;;;;171.82;43.88;;;;;;;9.00;100.00;103785.84;5064908;28;20036;-90
2021/12/16 11:59:58;;;;;;;166.05;43.50;;;;;;;8.97;100.00;103790.03;5036358;28;20264;-90
2021/12/16 12:02:32;;;;;;;154.40;42.10;;;;;;;8.91;100.00;103779.50;5033842;28;20068;-90
2021/12/16 12:05:20;;;;;;;170.10;43.10;;;;;;;8.90;100.00;103782.91;5043694;28;20029;-90
2021/12/16 12:08:21;;;;;;;161.20;42.38;;;;;;;8.82;100.00;103768.88;5037570;28;20056;-90
2021/12/16 12:11:06;;;;;;;171.68;42.03;;;;;;;8.81;100.00;103767.13;5048897;28;20094;-91
2021/12/16 12:13:40;;;;;;;150.48;40.17;;;;;;;8.78;100.00;103767.91;5040870;28;20020;-90
2021/12/16 12:16:09;;;;;;;;;;;;;;;8.88;100.00;103776.81;5036948;28;20318;-90
2021/12/16 12:18:42;;;;;;;148.13;36.40;;;;;;;8.87;100.00;103777.69;5031111;28;20062;-91
2021/12/16 12:21:25;;;;;;;151.57;37.13;;;;;;;8.89;100.00;103774.28;5016943;28;20120;-90
2021/12/16 12:24:00;;;;;;;136.10;34.92;;;;;;;8.82;100.00;103756.81;5049562;28;20056;-92
2021/12/16 12:26:27;;;;;;;149.05;36.92;;;;;;;8.84;100.00;103756.88;5050025;28;20024;-89
2021/12/16 12:29:18;;;;;;;146.73;37.83;;;;;;;8.90;100.00;103764.81;5055364;28;20017;-90
2021/12/16 12:31:51;;;;;;;158.77;38.83;;;;;;;8.87;100.00;103752.66;5053831;28;20025;-90
2021/12/16 12:34:19;;;;;;;144.88;37.45;;;;;;;8.91;100.00;103754.53;5047569;28;20017;-90
2021/12/16 12:36:49;;;;;;;155.55;38.30;;;;;;;9.01;100.00;103771.19;5058717;28;20492;-90
2021/12/16 12:39:17;;;;;;;148.52;37.20;;;;;;;8.91;100.00;103754.53;5030832;28;20021;-90
2021/12/16 12:41:45;;;;;;;134.95;36.53;;;;;;;8.96;100.00;103765.88;5039301;28;20033;-90
2021/12/16 12:44:11;;;;;;;125.28;33.83;;;;;;;9.03;100.00;103766.94;5049957;28;20502;-90
2021/12/16 12:46:39;;;;;;;132.20;34.97;;;;;;;8.99;100.00;103755.63;5035600;28;20032;-89
2021/12/16 12:49:09;;;;;;;129.15;34.17;;;;;;;9.15;100.00;103780.22;5057290;28;20490;-90
2021/12/16 12:51:47;;;;;;;142.07;35.63;;;;;;;9.06;100.00;103760.16;5035848;28;20073;-91
2021/12/16 12:54:27;;;;;;;146.90;35.35;;;;;;;9.09;100.00;103760.22;5065191;28;20028;-91
2021/12/16 12:57:03;;;;;;;136.77;36.70;;;;;;;9.13;100.00;103765.50;5045088;28;20397;-90
2021/12/16 12:59:39;;;;;;;130.80;34.95;;;;;;;9.20;100.00;103763.16;5035505;28;20024;-90
2021/12/16 13:05:35;;;;;;;127.10;34.90;;;;;;;9.28;100.00;103764.22;5015878;28;20334;-90
2021/12/16 13:08:10;;;;;;;134.57;34.67;;;;;;;9.36;100.00;103773.09;5031914;28;20929;-90
2021/12/16 13:10:43;;;;;;;133.07;36.72;;;;;;;9.27;100.00;103749.53;5039647;28;20473;-90
2021/12/16 13:13:28;;;;;;;134.27;36.43;;;;;;;9.26;100.00;103750.38;5035356;28;20024;-90
2021/12/16 13:16:18;;;;;;;134.15;37.17;;;;;;;9.26;100.00;103747.78;5033275;28;20279;-89
2021/12/16 13:27:12;;;;;;;138.77;37.42;;;;;;;9.31;100.00;103769.50;5059004;28;20036;-90
2021/12/16 13:29:42;;;;;;;138.15;36.95;;;;;;;9.26;100.00;103765.03;5051166;28;20426;-90
2021/12/16 13:32:15;;;;;;;144.90;36.70;;;;;;;9.23;100.00;103765.81;5052671;28;20025;-90
2021/12/16 13:35:21;;;;;;;126.50;35.27;;;;;;;9.31;100.00;103781.56;5040598;28;20074;-91
2021/12/16 13:37:51;;;;;;;127.13;34.47;;;;;;;9.20;100.00;103764.84;5046620;28;20082;-92
2021/12/16 13:40:30;;;;;;;131.13;35.40;;;;;;;9.12;100.00;103756.88;5044631;28;20025;-90
2021/12/16 13:43:14;;;;;;;129.00;36.33;;;;;;;9.20;100.00;103778.66;5040760;28;20044;-90
2021/12/16 13:45:54;;;;;;;121.68;34.85;;;;;;;9.09;100.00;103759.34;5048298;28;20033;-90
2021/12/16 14:05:39;;;;;;;114.45;32.00;;;;;;;9.08;100.00;103767.94;5035762;28;20398;-89
2021/12/16 14:08:08;;;;;;;116.80;30.02;;;;;;;9.05;100.00;103773.91;5050436;28;20021;-91
2021/12/16 14:10:48;;;;;;;112.38;29.60;;;;;;;9.18;100.00;103794.97;5068024;28;20524;-90
2021/12/16 14:14:09;;;;;;;113.18;30.63;;;;;;;9.05;100.00;103775.63;5036609;28;20036;-90
2021/12/16 14:16:33;;;;;;;108.22;29.35;;;;;;;9.13;100.00;103797.44;5044596;28;20037;-90
2021/12/16 14:25:19;;;;;;;110.07;28.77;;;;;;;8.94;100.00;103779.63;5061604;28;20262;-90
2021/12/16 14:31:17;;;;;;;98.70;27.15;;;;;;;8.84;100.00;103788.78;5056131;28;20059;-90
2021/12/16 14:50:27;;;;;;;112.03;28.65;;;;;;;9.18;100.00;103813.97;5060483;28;20067;-90
2021/12/16 14:52:57;;;;;;;112.87;27.97;;;;;;;9.11;100.00;103806.84;5060831;28;20080;-92
2021/12/16 14:55:31;;;;;;;106.03;28.52;;;;;;;9.06;100.00;103804.16;5038115;28;20029;-92
2021/12/16 14:58:06;;;;;;;109.10;27.10;;;;;;;9.10;100.00;103812.84;5044890;28;20025;-92
2021/12/16 15:01:00;;;;;;;116.47;31.55;;;;;;;9.01;100.00;103803.09;5040365;28;20392;-90
2021/12/16 15:03:39;;;;;;;113.07;29.80;;;;;;;8.96;100.00;103801.22;5037203;28;20044;-91
2021/12/16 15:06:29;;;;;;;115.53;30.83;;;;;;;8.90;100.00;103790.69;5038741;28;20496;-92
2021/12/16 15:09:20;;;;;;;115.00;32.05;;;;;;;8.94;100.00;103808.06;5049097;28;20346;-91
2021/12/16 15:17:45;;;;;;;109.03;28.90;;;;;;;8.58;100.00;103803.50;5060126;28;20033;-91
2021/12/16 15:42:56;;;;;;;81.45;24.83;;;;;;;7.68;100.00;103819.28;5046284;28;20068;-90
2021/12/16 15:45:28;;;;;;;82.50;25.63;;;;;;;7.62;100.00;103819.09;5044864;28;20086;-90
2021/12/16 15:47:59;;;;;;;112.38;30.00;;;;;;;7.68;100.00;103842.53;5047363;28;20025;-91
2021/12/16 15:50:34;;;;;;;99.30;28.42;;;;;;;7.69;100.00;103849.47;5040137;28;20398;-91
2021/12/16 15:53:06;;;;;;;135.48;36.92;;;;;;;7.71;100.00;103842.66;5035017;28;20029;-90
2021/12/16 15:55:45;;;;;;;115.00;30.70;;;;;;;7.66;100.00;103832.13;5038971;28;20078;-91
2021/12/16 15:58:20;;;;;;;149.23;41.83;;;;;;;7.86;100.00;103854.41;5049820;28;20028;-91
2021/12/16 16:00:52;;;;;;;182.07;49.97;;;;;;;7.94;100.00;103858.13;5030370;28;20112;-91
2021/12/16 16:03:21;;;;;;;172.68;47.25;;;;;;;7.99;100.00;103860.88;5035125;28;20119;-90
2021/12/16 16:05:55;;;;;;;164.20;44.60;;;;;;;7.93;100.00;103835.72;5038119;28;20033;-90
2021/12/16 16:08:23;;;;;;;192.98;52.63;;;;;;;7.96;100.00;103845.28;5049922;28;20020;-90